createdAt,value
2022-07-26T00:00:07.363Z,89.96
2022-07-26T00:02:35.290Z,89.60
2022-07-26T00:05:04.243Z,90.00
2022-07-26T00:07:36.433Z,89.64
2022-07-26T00:10:07.380Z,90.23
2022-07-26T00:12:35.462Z,89.78
2022-07-26T00:15:04.915Z,90.41
2022-07-26T00:17:33.953Z,90.26
2022-07-26T00:20:01.975Z,90.25
2022-07-26T00:22:41.795Z,90.19
2022-07-26T00:25:22.607Z,90.27
2022-07-26T00:27:52.768Z,90.44
2022-07-26T00:30:21.301Z,90.19
2022-07-26T00:32:49.465Z,90.31
2022-07-26T00:35:19.690Z,90.22
2022-07-26T00:37:48.683Z,90.04
2022-07-26T00:40:17.070Z,90.46
2022-07-26T00:42:46.118Z,90.26
2022-07-26T00:45:16.388Z,90.16
2022-07-26T00:47:44.621Z,90.38
2022-07-26T00:50:16.438Z,90.73
2022-07-26T00:52:46.606Z,90.60
2022-07-26T00:55:16.152Z,90.91
2022-07-26T00:57:44.448Z,90.60
2022-07-26T01:00:18.589Z,90.77
2022-07-26T01:02:47.611Z,90.65
2022-07-26T01:05:16.305Z,90.44
2022-07-26T01:07:45.795Z,90.69
2022-07-26T01:10:14.968Z,91.02
2022-07-26T01:12:44.666Z,91.15
2022-07-26T01:15:15.012Z,90.71
2022-07-26T01:17:46.715Z,91.00
2022-07-26T01:20:15.709Z,90.94
2022-07-26T01:25:43.304Z,91.01
2022-07-26T01:28:12.141Z,91.04
2022-07-26T01:30:50.313Z,90.88
2022-07-26T01:33:18.625Z,90.58
2022-07-26T01:35:46.667Z,90.20
2022-07-26T01:38:18.487Z,89.93
2022-07-26T01:40:46.502Z,89.35
2022-07-26T01:43:14.575Z,88.44
2022-07-26T01:45:42.832Z,88.18
2022-07-26T01:48:11.100Z,87.25
2022-07-26T01:50:39.369Z,86.62
2022-07-26T01:53:08.415Z,85.78
2022-07-26T01:55:37.359Z,84.91
2022-07-26T01:58:06.996Z,84.06
2022-07-26T02:00:35.768Z,83.75
2022-07-26T02:03:04.129Z,83.36
2022-07-26T02:05:32.420Z,82.61
2022-07-26T02:08:00.745Z,82.35
2022-07-26T02:10:47.619Z,81.98
2022-07-26T02:13:15.889Z,81.67
2022-07-26T02:15:44.038Z,80.81
2022-07-26T02:18:12.491Z,79.99
2022-07-26T02:20:40.521Z,79.54
2022-07-26T02:23:08.558Z,79.39
2022-07-26T02:25:37.732Z,79.21
2022-07-26T02:28:06.008Z,78.85
2022-07-26T02:30:34.415Z,78.20
2022-07-26T02:33:02.537Z,76.96
2022-07-26T02:35:32.711Z,75.95
2022-07-26T02:38:05.988Z,75.21
2022-07-26T02:40:35.740Z,75.06
2022-07-26T02:43:05.200Z,74.85
2022-07-26T02:45:33.452Z,75.14
2022-07-26T02:48:01.801Z,74.61
2022-07-26T02:50:30.574Z,74.44
2022-07-26T02:52:58.639Z,74.11
2022-07-26T02:55:28.285Z,73.74
2022-07-26T02:57:56.450Z,73.41
2022-07-26T03:00:27.500Z,73.29
2022-07-26T03:02:56.599Z,72.68
2022-07-26T03:05:24.709Z,72.21
2022-07-26T03:07:52.805Z,72.01
2022-07-26T03:10:21.210Z,71.52
2022-07-26T03:12:49.332Z,71.05
2022-07-26T03:15:17.307Z,70.17
2022-07-26T03:17:45.533Z,69.64
2022-07-26T03:20:13.804Z,69.34
2022-07-26T03:22:43.496Z,68.83
2022-07-26T03:25:12.740Z,68.18
2022-07-26T03:27:40.803Z,67.56
2022-07-26T03:30:09.607Z,67.07
2022-07-26T03:32:38.846Z,67.40
2022-07-26T03:35:09.043Z,67.41
2022-07-26T03:37:46.113Z,67.52
2022-07-26T03:40:19.259Z,68.26
2022-07-26T03:42:48.545Z,68.56
2022-07-26T03:45:17.064Z,68.68
2022-07-26T03:47:49.450Z,69.37
2022-07-26T03:50:17.405Z,69.35
2022-07-26T03:52:45.457Z,69.74
2022-07-26T03:55:32.883Z,69.98
2022-07-26T03:58:00.864Z,70.21
2022-07-26T04:00:29.002Z,70.21
2022-07-26T04:02:57.224Z,70.27
2022-07-26T04:05:26.198Z,69.83
2022-07-26T04:07:54.389Z,69.66
2022-07-26T04:10:25.499Z,69.50
2022-07-26T04:12:53.620Z,69.54
2022-07-26T04:15:40.395Z,69.44
2022-07-26T04:18:08.405Z,69.92
2022-07-26T04:20:36.417Z,69.82
2022-07-26T04:23:11.336Z,70.15
2022-07-26T04:25:41.850Z,70.43
2022-07-26T04:28:11.736Z,70.56
2022-07-26T04:30:40.623Z,70.45
2022-07-26T04:33:08.740Z,69.66
2022-07-26T04:35:36.985Z,69.30
2022-07-26T04:38:06.970Z,69.42
2022-07-26T04:40:35.087Z,69.28
2022-07-26T04:43:15.945Z,69.19
2022-07-26T04:45:46.173Z,69.17
2022-07-26T04:48:15.441Z,69.04
2022-07-26T04:50:45.846Z,68.64
2022-07-26T04:53:14.067Z,68.02
2022-07-26T04:55:42.940Z,67.64
2022-07-26T04:58:11.923Z,67.47
2022-07-26T05:01:09.000Z,67.32
2022-07-26T05:03:28.286Z,67.49
2022-07-26T05:05:56.303Z,67.54
2022-07-26T05:08:24.316Z,67.27
2022-07-26T05:10:55.441Z,67.23
2022-07-26T05:13:30.701Z,67.17
2022-07-26T05:16:02.332Z,67.42
2022-07-26T05:18:31.705Z,67.06
2022-07-26T05:21:10.621Z,66.64
2022-07-26T05:23:38.773Z,65.48
2022-07-26T05:26:06.844Z,64.71
2022-07-26T05:28:35.724Z,64.71
2022-07-26T05:31:03.757Z,64.71
2022-07-26T05:33:31.861Z,64.95
2022-07-26T05:36:00.177Z,64.76
2022-07-26T05:38:28.298Z,64.81
2022-07-26T05:43:42.130Z,64.32
2022-07-26T05:46:12.333Z,64.48
2022-07-26T05:48:41.212Z,64.36
2022-07-26T05:51:12.374Z,64.35
2022-07-26T05:53:40.783Z,64.50
2022-07-26T05:56:09.258Z,64.40
2022-07-26T05:58:38.185Z,64.60
2022-07-26T06:01:06.365Z,64.76
2022-07-26T06:03:34.448Z,64.68
2022-07-26T06:06:02.675Z,64.72
2022-07-26T06:08:30.997Z,65.18
2022-07-26T06:10:59.768Z,64.90
2022-07-26T06:13:29.430Z,65.15
2022-07-26T06:15:57.339Z,65.18
2022-07-26T06:18:25.624Z,65.29
2022-07-26T06:21:14.802Z,66.02
2022-07-26T06:23:43.920Z,66.18
2022-07-26T06:26:12.900Z,65.92
2022-07-26T06:28:41.927Z,65.51
2022-07-26T06:31:09.912Z,65.54
2022-07-26T06:33:38.254Z,65.04
2022-07-26T06:36:09.048Z,64.76
2022-07-26T06:38:37.360Z,64.75
2022-07-26T06:41:05.575Z,64.61
2022-07-26T06:43:35.673Z,64.56
2022-07-26T06:46:03.867Z,64.12
2022-07-26T06:48:31.969Z,63.34
2022-07-26T06:51:01.696Z,62.69
2022-07-26T06:53:47.948Z,62.29
2022-07-26T06:56:18.911Z,61.47
2022-07-26T06:58:47.374Z,60.90
2022-07-26T07:01:51.374Z,60.38
2022-07-26T07:04:05.087Z,59.95
2022-07-26T07:06:33.327Z,60.05
2022-07-26T07:09:01.321Z,60.32
2022-07-26T07:11:31.832Z,60.17
2022-07-26T07:16:46.734Z,61.47
2022-07-26T07:19:14.747Z,61.64
2022-07-26T07:21:42.771Z,61.63
2022-07-26T07:24:11.133Z,61.39
2022-07-26T07:26:42.162Z,61.44
2022-07-26T07:29:13.516Z,61.76
2022-07-26T07:31:49.153Z,61.63
2022-07-26T07:34:19.656Z,61.32
2022-07-26T07:36:50.718Z,61.08
2022-07-26T07:39:19.534Z,60.86
2022-07-26T07:41:48.998Z,61.39
2022-07-26T07:44:17.646Z,61.82
2022-07-26T07:46:45.680Z,62.04
2022-07-26T07:49:13.973Z,62.13
2022-07-26T07:51:42.539Z,62.19
2022-07-26T07:54:16.570Z,61.69
2022-07-26T07:56:44.874Z,61.59
2022-07-26T07:59:14.801Z,61.27
2022-07-26T08:01:43.134Z,61.05
2022-07-26T08:04:13.184Z,60.79
2022-07-26T08:06:41.542Z,61.05
2022-07-26T08:09:09.836Z,60.66
2022-07-26T08:11:41.869Z,60.56
2022-07-26T08:14:11.494Z,60.43
2022-07-26T08:16:41.326Z,60.47
2022-07-26T08:19:09.785Z,60.04
2022-07-26T08:21:39.761Z,59.34
2022-07-26T08:24:08.228Z,59.24
2022-07-26T08:26:38.141Z,59.48
2022-07-26T08:29:07.347Z,59.93
2022-07-26T08:31:35.464Z,60.05
2022-07-26T08:34:03.697Z,60.28
2022-07-26T08:36:33.243Z,60.15
2022-07-26T08:39:02.618Z,60.50
2022-07-26T08:41:31.920Z,60.74
2022-07-26T08:44:13.931Z,60.35
2022-07-26T08:46:43.829Z,60.19
2022-07-26T08:49:13.180Z,60.27
2022-07-26T08:51:45.543Z,60.29
2022-07-26T08:54:16.343Z,60.12
2022-07-26T08:56:53.179Z,60.22
2022-07-26T08:59:24.582Z,60.31
2022-07-26T09:02:08.835Z,59.83
2022-07-26T09:04:44.501Z,60.12
2022-07-26T09:07:20.799Z,60.73
2022-07-26T09:10:00.675Z,60.47
2022-07-26T09:12:31.825Z,60.42
2022-07-26T09:15:01.063Z,60.44
2022-07-26T09:17:47.539Z,60.43
2022-07-26T09:20:25.947Z,59.93
2022-07-26T09:23:08.855Z,60.26
2022-07-26T09:25:42.414Z,60.35
2022-07-26T09:28:31.708Z,60.04
2022-07-26T09:31:03.973Z,59.90
2022-07-26T09:33:52.881Z,60.08
2022-07-26T09:36:22.359Z,60.26
2022-07-26T09:38:53.410Z,60.33
2022-07-26T09:41:40.764Z,59.51
2022-07-26T09:44:25.689Z,59.75
2022-07-26T09:47:00.522Z,60.01
2022-07-26T09:49:40.575Z,60.25
2022-07-26T09:52:22.460Z,60.37
2022-07-26T09:54:50.637Z,60.67
2022-07-26T09:57:20.543Z,61.02
2022-07-26T09:59:48.515Z,61.17
2022-07-26T10:02:16.625Z,61.03
2022-07-26T10:04:45.079Z,61.54
2022-07-26T10:07:14.087Z,61.18
2022-07-26T10:10:12.145Z,60.53
2022-07-26T10:12:44.823Z,60.58
2022-07-26T10:15:50.726Z,60.32
2022-07-26T10:18:39.269Z,60.66
2022-07-26T10:21:21.544Z,60.96
2022-07-26T10:23:51.254Z,60.93
2022-07-26T10:26:35.409Z,60.83
2022-07-26T10:29:18.902Z,61.11
2022-07-26T10:32:09.785Z,60.95
2022-07-26T10:34:43.426Z,60.60
2022-07-26T10:37:23.706Z,60.29
2022-07-26T10:40:16.615Z,60.29
2022-07-26T10:42:46.021Z,60.42
2022-07-26T10:45:24.249Z,60.52
2022-07-26T10:48:15.342Z,60.08
2022-07-26T10:50:45.885Z,60.25
2022-07-26T10:53:26.057Z,60.25
2022-07-26T10:56:00.857Z,60.69
2022-07-26T10:58:28.871Z,60.85
2022-07-26T11:01:02.341Z,60.59
2022-07-26T11:03:39.214Z,60.64
2022-07-26T11:06:30.486Z,61.20
2022-07-26T11:08:59.506Z,61.63
2022-07-26T11:11:33.059Z,61.72
2022-07-26T11:14:12.499Z,61.52
2022-07-26T11:16:46.237Z,61.58
2022-07-26T11:19:20.485Z,61.85
2022-07-26T11:21:55.386Z,61.88
2022-07-26T11:24:23.740Z,62.09
2022-07-26T11:26:53.004Z,62.29
2022-07-26T11:29:38.938Z,62.29
2022-07-26T11:32:29.887Z,62.29
2022-07-26T11:35:06.123Z,61.72
2022-07-26T11:37:34.294Z,61.51
2022-07-26T11:40:02.447Z,61.70
2022-07-26T11:42:31.145Z,61.69
2022-07-26T11:44:59.401Z,61.75
2022-07-26T11:47:27.894Z,61.50
2022-07-26T11:52:44.497Z,61.91
2022-07-26T11:55:13.212Z,62.93
2022-07-26T11:57:41.278Z,64.24
2022-07-26T12:00:12.013Z,64.42
2022-07-26T12:02:40.349Z,64.67
2022-07-26T12:05:23.550Z,64.20
2022-07-26T12:07:57.341Z,64.34
2022-07-26T12:10:25.690Z,64.60
2022-07-26T12:13:16.469Z,64.15
2022-07-26T12:15:46.624Z,63.84
2022-07-26T12:18:29.597Z,63.34
2022-07-26T12:21:06.715Z,63.32
2022-07-26T12:23:51.827Z,63.07
2022-07-26T12:26:31.608Z,63.22
2022-07-26T12:29:22.608Z,63.77
2022-07-26T12:32:14.050Z,64.83
2022-07-26T12:34:56.417Z,65.14
2022-07-26T12:37:39.442Z,65.66
2022-07-26T12:40:17.233Z,66.74
2022-07-26T12:43:01.281Z,66.67
2022-07-26T12:45:35.869Z,67.08
2022-07-26T12:48:11.553Z,67.13
2022-07-26T12:50:39.857Z,67.62
2022-07-26T12:53:12.706Z,67.33
2022-07-26T12:55:41.353Z,67.24
2022-07-26T12:58:09.960Z,67.36
2022-07-26T13:00:38.086Z,66.97
2022-07-26T13:03:06.090Z,67.33
2022-07-26T13:05:36.563Z,67.78
2022-07-26T13:08:04.785Z,67.84
2022-07-26T13:10:54.442Z,67.83
2022-07-26T13:13:25.062Z,68.04
2022-07-26T13:15:53.113Z,68.41
2022-07-26T13:18:22.749Z,68.39
2022-07-26T13:20:50.725Z,68.76
2022-07-26T13:23:21.399Z,68.85
2022-07-26T13:25:51.461Z,69.21
2022-07-26T13:28:19.616Z,69.50
2022-07-26T13:30:47.764Z,70.14
2022-07-26T13:33:17.631Z,70.91
2022-07-26T13:35:45.548Z,71.13
2022-07-26T13:38:20.620Z,71.24
2022-07-26T13:40:51.115Z,72.10
2022-07-26T13:43:19.170Z,72.59
2022-07-26T13:45:48.278Z,73.07
2022-07-26T13:48:16.397Z,73.51
2022-07-26T13:50:44.490Z,73.67
2022-07-26T13:53:13.660Z,73.82
2022-07-26T13:55:41.784Z,74.35
2022-07-26T13:58:10.360Z,74.44
2022-07-26T14:00:41.923Z,74.28
2022-07-26T14:03:10.204Z,74.39
2022-07-26T14:05:38.339Z,74.68
2022-07-26T14:08:07.155Z,74.99
2022-07-26T14:10:40.179Z,74.90
2022-07-26T14:13:09.562Z,75.03
2022-07-26T14:15:37.796Z,75.27
2022-07-26T14:18:06.349Z,75.83
2022-07-26T14:20:34.605Z,75.51
2022-07-26T14:23:02.655Z,75.94
2022-07-26T14:25:33.282Z,75.80
2022-07-26T14:28:01.810Z,75.96
2022-07-26T14:30:30.030Z,76.02
2022-07-26T14:33:01.642Z,76.41
2022-07-26T14:35:29.768Z,76.70
2022-07-26T14:37:57.906Z,76.57
2022-07-26T14:40:27.560Z,76.86
2022-07-26T14:42:55.560Z,77.02
2022-07-26T14:45:23.598Z,77.27
2022-07-26T14:47:52.869Z,77.34
2022-07-26T14:50:23.584Z,77.25
2022-07-26T14:52:51.608Z,77.62
2022-07-26T14:55:25.002Z,77.64
2022-07-26T14:57:54.065Z,77.75
2022-07-26T15:00:22.174Z,77.88
2022-07-26T15:02:51.853Z,78.46
2022-07-26T15:05:20.557Z,78.41
2022-07-26T15:07:48.607Z,78.91
2022-07-26T15:10:16.948Z,78.94
2022-07-26T15:12:45.431Z,79.09
2022-07-26T15:15:13.484Z,78.89
2022-07-26T15:17:42.418Z,79.14
2022-07-26T15:20:10.525Z,79.14
2022-07-26T15:22:38.818Z,79.36
2022-07-26T15:25:07.458Z,79.79
2022-07-26T15:27:35.639Z,79.72
2022-07-26T15:30:06.898Z,79.46
2022-07-26T15:32:39.489Z,79.61
2022-07-26T15:35:08.129Z,79.43
2022-07-26T15:37:44.588Z,79.72
2022-07-26T15:40:13.054Z,79.65
2022-07-26T15:42:44.159Z,79.73
2022-07-26T15:45:13.782Z,80.10
2022-07-26T15:47:54.813Z,80.19
2022-07-26T15:50:24.252Z,80.05
2022-07-26T15:52:53.447Z,80.29
2022-07-26T15:55:22.380Z,80.28
2022-07-26T15:57:50.525Z,80.16
2022-07-26T16:00:19.066Z,80.04
2022-07-26T16:02:47.311Z,80.04
2022-07-26T16:05:15.478Z,79.92
2022-07-26T16:07:44.424Z,80.00
2022-07-26T16:10:14.356Z,80.01
2022-07-26T16:12:42.854Z,80.12
2022-07-26T16:15:12.603Z,80.11
2022-07-26T16:17:40.870Z,80.21
2022-07-26T16:20:09.981Z,80.64
2022-07-26T16:22:42.370Z,80.98
2022-07-26T16:25:13.817Z,80.64
2022-07-26T16:27:44.330Z,80.53
2022-07-26T16:30:15.587Z,80.59
2022-07-26T16:32:44.160Z,80.50
2022-07-26T16:35:12.588Z,80.60
2022-07-26T16:37:42.165Z,80.59
2022-07-26T16:40:11.167Z,80.72
2022-07-26T16:42:39.379Z,80.82
2022-07-26T16:45:09.563Z,80.66
2022-07-26T16:47:37.802Z,81.11
2022-07-26T16:50:06.731Z,81.26
2022-07-26T16:52:35.432Z,81.16
2022-07-26T16:55:04.854Z,81.35
2022-07-26T16:57:32.822Z,81.10
2022-07-26T17:00:12.457Z,81.24
2022-07-26T17:02:40.990Z,80.63
2022-07-26T17:05:09.780Z,80.93
2022-07-26T17:07:40.968Z,80.58
2022-07-26T17:10:11.197Z,80.73
2022-07-26T17:12:39.663Z,80.87
2022-07-26T17:15:08.477Z,81.03
2022-07-26T17:17:51.851Z,80.97
2022-07-26T17:20:21.837Z,81.22
2022-07-26T17:22:50.862Z,81.21
2022-07-26T17:25:19.849Z,81.11
2022-07-26T17:27:51.032Z,80.87
2022-07-26T17:30:18.945Z,81.01
2022-07-26T17:32:46.972Z,80.96
2022-07-26T17:35:15.376Z,81.16
2022-07-26T17:37:43.383Z,81.34
2022-07-26T17:40:12.428Z,81.62
2022-07-26T17:42:41.570Z,81.86
2022-07-26T17:45:10.013Z,81.88
2022-07-26T17:47:38.032Z,81.43
2022-07-26T17:52:57.066Z,81.35
2022-07-26T17:55:25.315Z,81.45
2022-07-26T17:57:53.651Z,81.37
2022-07-26T18:00:23.557Z,81.69
2022-07-26T18:02:58.549Z,81.56
2022-07-26T18:05:33.354Z,81.79
2022-07-26T18:08:07.261Z,81.65
2022-07-26T18:10:35.261Z,81.68
2022-07-26T18:13:03.300Z,81.80
2022-07-26T18:15:31.504Z,81.97
2022-07-26T18:17:59.473Z,81.94
2022-07-26T18:20:27.626Z,82.11
2022-07-26T18:22:57.906Z,81.73
2022-07-26T18:25:26.929Z,81.95
2022-07-26T18:27:55.196Z,82.43
2022-07-26T18:30:23.396Z,82.31
2022-07-26T18:32:51.513Z,82.51
2022-07-26T18:35:19.527Z,82.58
2022-07-26T18:37:47.972Z,82.18
2022-07-26T18:40:16.101Z,82.30
2022-07-26T18:42:44.188Z,81.97
2022-07-26T18:45:13.344Z,82.04
2022-07-26T18:47:42.659Z,81.97
2022-07-26T18:50:12.778Z,81.71
2022-07-26T18:52:45.586Z,81.83
2022-07-26T18:55:15.400Z,81.83
2022-07-26T18:57:45.155Z,81.59
2022-07-26T19:00:19.916Z,81.90
2022-07-26T19:02:48.599Z,81.60
2022-07-26T19:05:17.315Z,82.07
2022-07-26T19:07:47.421Z,81.98
2022-07-26T19:10:15.589Z,82.42
2022-07-26T19:12:45.897Z,82.27
2022-07-26T19:15:17.898Z,82.54
2022-07-26T19:17:46.148Z,82.42
2022-07-26T19:20:14.834Z,82.10
2022-07-26T19:22:47.675Z,82.33
2022-07-26T19:25:17.029Z,82.16
2022-07-26T19:27:47.473Z,82.13
2022-07-26T19:30:15.640Z,81.83
2022-07-26T19:32:43.634Z,82.05
2022-07-26T19:35:11.684Z,81.95
2022-07-26T19:37:41.851Z,81.76
2022-07-26T19:40:10.456Z,82.00
2022-07-26T19:42:38.610Z,82.31
2022-07-26T19:45:09.525Z,82.09
2022-07-26T19:47:38.051Z,82.19
2022-07-26T19:50:09.152Z,82.60
2022-07-26T19:52:37.373Z,82.18
2022-07-26T19:55:05.946Z,82.50
2022-07-26T19:57:34.041Z,82.40
2022-07-26T20:00:05.686Z,82.61
2022-07-26T20:02:33.919Z,82.54
2022-07-26T20:05:02.120Z,82.45
2022-07-26T20:07:31.078Z,82.44
2022-07-26T20:09:59.135Z,82.58
2022-07-26T20:12:27.176Z,82.52
2022-07-26T20:14:55.193Z,82.18
2022-07-26T20:17:24.133Z,82.22
2022-07-26T20:19:53.839Z,82.35
2022-07-26T20:22:24.209Z,82.53
2022-07-26T20:24:55.928Z,82.30
2022-07-26T20:27:25.326Z,82.57
2022-07-26T20:30:00.391Z,82.61
2022-07-26T20:32:28.957Z,82.98
2022-07-26T20:34:56.931Z,83.08
2022-07-26T20:37:25.082Z,82.61
2022-07-26T20:39:53.105Z,82.81
2022-07-26T20:42:21.895Z,82.63
2022-07-26T20:44:51.864Z,82.64
2022-07-26T20:47:20.026Z,82.48
2022-07-26T20:49:48.051Z,82.75
2022-07-26T20:52:16.276Z,82.38
2022-07-26T20:54:44.393Z,82.81
2022-07-26T20:57:12.405Z,82.67
2022-07-26T20:59:40.513Z,82.70
2022-07-26T21:02:08.739Z,82.60
2022-07-26T21:04:36.933Z,82.80
2022-07-26T21:07:05.112Z,82.38
2022-07-26T21:09:33.170Z,82.72
2022-07-26T21:12:01.419Z,82.74
2022-07-26T21:14:29.662Z,82.62
2022-07-26T21:16:57.724Z,82.80
2022-07-26T21:19:25.802Z,82.68
2022-07-26T21:21:57.768Z,83.23
2022-07-26T21:24:25.756Z,83.14
2022-07-26T21:26:55.938Z,83.25
2022-07-26T21:29:25.274Z,83.12
2022-07-26T21:31:54.561Z,82.89
2022-07-26T21:34:22.877Z,83.09
2022-07-26T21:36:53.180Z,83.45
2022-07-26T21:39:21.466Z,82.98
2022-07-26T21:41:49.576Z,83.13
2022-07-26T21:44:17.734Z,83.33
2022-07-26T21:46:45.845Z,83.43
2022-07-26T21:49:14.206Z,83.28
2022-07-26T21:51:42.797Z,83.30
2022-07-26T21:54:10.889Z,83.89
2022-07-26T21:56:38.942Z,83.63
2022-07-26T21:59:07.092Z,83.48
2022-07-26T22:01:35.140Z,83.48
2022-07-26T22:04:03.204Z,83.21
2022-07-26T22:06:31.454Z,83.47
2022-07-26T22:08:59.515Z,83.44
2022-07-26T22:11:27.499Z,83.82
2022-07-26T22:13:55.873Z,83.87
2022-07-26T22:16:23.910Z,83.86
2022-07-26T22:18:51.945Z,83.86
2022-07-26T22:21:21.230Z,83.83
2022-07-26T22:23:50.038Z,83.93
2022-07-26T22:26:18.091Z,83.50
2022-07-26T22:28:46.255Z,83.98
2022-07-26T22:31:14.298Z,83.77
2022-07-26T22:33:42.546Z,84.03
2022-07-26T22:36:10.858Z,83.56
2022-07-26T22:38:38.874Z,83.62
2022-07-26T22:41:06.885Z,83.70
2022-07-26T22:43:35.076Z,83.76
2022-07-26T22:46:03.288Z,83.98
2022-07-26T22:48:32.424Z,84.00
2022-07-26T22:51:03.050Z,84.06
2022-07-26T22:53:31.104Z,83.88
2022-07-26T22:55:59.208Z,83.99
2022-07-26T22:58:31.340Z,83.67
2022-07-26T23:00:59.490Z,83.81
2022-07-26T23:03:28.017Z,84.17
2022-07-26T23:05:58.946Z,83.98
2022-07-26T23:08:46.533Z,84.06
2022-07-26T23:11:15.744Z,84.16
2022-07-26T23:13:43.704Z,83.80
2022-07-26T23:16:11.861Z,83.49
2022-07-26T23:18:42.678Z,83.36
2022-07-26T23:21:10.737Z,83.46
2022-07-26T23:23:38.738Z,83.38
2022-07-26T23:26:06.917Z,83.52
2022-07-26T23:28:37.711Z,83.37
2022-07-26T23:31:11.821Z,83.25
2022-07-26T23:33:50.906Z,83.17
2022-07-26T23:36:26.698Z,83.05
2022-07-26T23:39:00.182Z,83.05
2022-07-26T23:41:28.678Z,82.75
2022-07-26T23:43:56.946Z,82.58
2022-07-26T23:46:25.904Z,82.38
2022-07-26T23:48:55.624Z,82.10
2022-07-26T23:51:23.844Z,82.28
2022-07-26T23:53:52.563Z,81.81
2022-07-26T23:56:20.583Z,81.43
2022-07-26T23:58:48.947Z,81.23
